createdAt,value
2022-10-29T00:00:31.285Z,8.6
2022-10-29T00:05:20.534Z,8.5
2022-10-29T00:10:26.585Z,8.5
2022-10-29T00:15:32.556Z,8.4
2022-10-29T00:20:21.862Z,8.4
2022-10-29T00:25:27.678Z,8.4
2022-10-29T00:30:16.735Z,8.4
2022-10-29T00:35:22.850Z,8.5
2022-10-29T00:40:28.591Z,8.6
2022-10-29T00:45:17.746Z,8.6
2022-10-29T00:50:23.693Z,8.5
2022-10-29T00:55:29.922Z,8.3
2022-10-29T01:00:18.874Z,8.3
2022-10-29T01:05:25.160Z,8.2
2022-10-29T01:10:31.397Z,8.3
2022-10-29T01:15:20.240Z,8.3
2022-10-29T01:20:26.336Z,8.1
2022-10-29T01:25:32.382Z,8.1
2022-10-29T01:30:21.524Z,8.1
2022-10-29T01:35:27.503Z,8.0
2022-10-29T01:40:16.153Z,7.9
2022-10-29T01:45:22.206Z,7.9
2022-10-29T01:50:28.379Z,7.9
2022-10-29T01:55:17.380Z,7.8
2022-10-29T02:00:23.574Z,7.7
2022-10-29T02:05:29.441Z,7.7
2022-10-29T02:10:18.244Z,7.7
2022-10-29T02:15:24.455Z,7.6
2022-10-29T02:20:30.423Z,7.6
2022-10-29T02:25:19.648Z,7.5
2022-10-29T02:30:25.489Z,7.6
2022-10-29T02:35:31.564Z,7.5
2022-10-29T02:40:19.943Z,7.6
2022-10-29T02:45:25.850Z,7.5
2022-10-29T02:50:32.040Z,7.5
2022-10-29T02:55:20.924Z,7.4
2022-10-29T03:00:27.107Z,7.4
2022-10-29T03:05:15.736Z,7.4
2022-10-29T03:10:21.733Z,7.3
2022-10-29T03:15:27.913Z,7.3
2022-10-29T03:20:16.936Z,7.2
2022-10-29T03:25:23.218Z,7.2
2022-10-29T03:30:28.962Z,7.1
2022-10-29T03:35:18.018Z,6.9
2022-10-29T03:40:24.392Z,6.9
2022-10-29T03:45:30.566Z,7.1
2022-10-29T03:50:19.471Z,7.3
2022-10-29T03:55:25.581Z,7.1
2022-10-29T04:00:31.676Z,7.1
2022-10-29T04:05:20.089Z,6.8
2022-10-29T04:10:26.013Z,6.7
2022-10-29T04:15:32.309Z,6.7
2022-10-29T04:20:43.391Z,6.6
2022-10-29T04:30:16.185Z,6.6
2022-10-29T04:35:22.288Z,6.5
2022-10-29T04:40:28.083Z,6.5
2022-10-29T04:45:17.109Z,6.4
2022-10-29T04:50:23.306Z,6.4
2022-10-29T04:55:29.251Z,6.3
2022-10-29T05:00:18.917Z,6.2
2022-10-29T05:05:24.303Z,6.1
2022-10-29T05:10:30.408Z,6.0
2022-10-29T05:15:19.224Z,6.0
2022-10-29T05:20:25.324Z,5.9
2022-10-29T05:25:31.475Z,5.9
2022-10-29T05:30:20.488Z,5.9
2022-10-29T05:35:26.485Z,5.7
2022-10-29T05:40:31.705Z,5.6
2022-10-29T05:45:21.623Z,5.6
2022-10-29T05:50:26.939Z,5.7
2022-10-29T05:55:15.828Z,5.7
2022-10-29T06:00:22.112Z,5.7
2022-10-29T06:05:27.902Z,5.7
2022-10-29T06:10:16.956Z,5.7
2022-10-29T06:15:22.908Z,5.8
2022-10-29T06:20:29.198Z,5.8
2022-10-29T06:25:18.009Z,5.7
2022-10-29T06:30:24.064Z,5.7
2022-10-29T06:35:30.388Z,5.8
2022-10-29T06:40:19.390Z,5.9
2022-10-29T06:45:25.346Z,6.1
2022-10-29T06:50:31.452Z,6.2
2022-10-29T06:55:20.594Z,6.4
2022-10-29T07:00:26.641Z,6.4
2022-10-29T07:05:31.901Z,6.6
2022-10-29T07:10:20.928Z,6.7
2022-10-29T07:15:27.801Z,6.9
2022-10-29T07:20:16.023Z,7.0
2022-10-29T07:25:22.064Z,7.1
2022-10-29T07:30:28.143Z,7.1
2022-10-29T07:35:17.337Z,7.1
2022-10-29T07:40:22.960Z,7.2
2022-10-29T07:45:28.981Z,7.7
2022-10-29T07:50:17.972Z,8.6
2022-10-29T07:55:24.111Z,8.8
2022-10-29T08:00:30.300Z,9.3
2022-10-29T08:05:19.475Z,9.4
2022-10-29T08:10:25.663Z,9.5
2022-10-29T08:15:31.698Z,9.7
2022-10-29T08:20:20.641Z,10.9
2022-10-29T08:25:26.681Z,11.8
2022-10-29T08:30:32.927Z,11.8
2022-10-29T08:35:22.048Z,11.9
2022-10-29T08:40:27.585Z,12.3
2022-10-29T08:45:16.638Z,12.7
2022-10-29T08:50:22.866Z,12.9
2022-10-29T08:55:29.601Z,12.9
2022-10-29T09:00:17.905Z,13.2
2022-10-29T09:05:23.707Z,13.7
2022-10-29T09:10:29.910Z,14.2
2022-10-29T09:15:18.929Z,14.3
2022-10-29T09:20:24.908Z,14.7
2022-10-29T09:25:31.024Z,15.3
2022-10-29T09:30:20.013Z,15.0
2022-10-29T09:35:26.044Z,14.8
2022-10-29T09:40:32.084Z,14.8
2022-10-29T09:45:20.997Z,15.0
2022-10-29T09:50:27.044Z,15.1
2022-10-29T09:55:16.073Z,15.0
2022-10-29T10:00:22.390Z,15.2
2022-10-29T10:05:28.093Z,15.1
2022-10-29T10:10:17.071Z,15.2
2022-10-29T10:15:23.216Z,15.2
2022-10-29T10:20:29.285Z,15.4
2022-10-29T10:25:18.275Z,15.4
2022-10-29T10:30:24.265Z,15.5
2022-10-29T10:35:30.333Z,15.5
2022-10-29T10:40:18.646Z,15.6
2022-10-29T10:45:24.924Z,15.6
2022-10-29T10:50:30.927Z,15.6
2022-10-29T10:55:19.769Z,15.8
2022-10-29T11:00:25.922Z,16.0
2022-10-29T11:05:32.226Z,16.0
2022-10-29T11:10:21.355Z,15.9
2022-10-29T11:15:27.406Z,15.6
2022-10-29T11:20:16.620Z,16.1
2022-10-29T11:25:22.515Z,16.7
2022-10-29T11:30:28.617Z,17.1
2022-10-29T11:35:17.541Z,17.2
2022-10-29T11:40:23.463Z,17.7
2022-10-29T11:45:29.374Z,17.6
2022-10-29T11:50:18.427Z,17.6
2022-10-29T11:55:24.519Z,17.7
2022-10-29T12:00:30.593Z,17.9
2022-10-29T12:05:19.406Z,17.9
2022-10-29T12:10:25.442Z,18.2
2022-10-29T12:15:31.672Z,18.4
2022-10-29T12:20:23.467Z,18.3
2022-10-29T12:25:26.632Z,18.4
2022-10-29T12:30:32.775Z,18.6
2022-10-29T12:35:21.792Z,18.4
2022-10-29T12:40:27.018Z,18.6
2022-10-29T12:45:16.311Z,18.7
2022-10-29T12:50:22.123Z,18.6
2022-10-29T12:55:28.163Z,18.6
2022-10-29T13:00:17.442Z,18.6
2022-10-29T13:05:23.115Z,18.5
2022-10-29T13:10:29.188Z,18.4
2022-10-29T13:15:18.235Z,18.4
2022-10-29T13:20:24.439Z,18.5
2022-10-29T13:25:30.502Z,18.6
2022-10-29T13:30:19.384Z,19.0
2022-10-29T13:35:25.609Z,19.5
2022-10-29T13:40:30.677Z,19.4
2022-10-29T13:45:19.825Z,19.0
2022-10-29T13:50:25.786Z,18.8
2022-10-29T13:55:31.859Z,18.7
2022-10-29T14:00:21.193Z,18.5
2022-10-29T14:05:26.931Z,18.5
2022-10-29T14:10:15.977Z,18.5
2022-10-29T14:15:22.033Z,18.4
2022-10-29T14:20:28.257Z,18.4
2022-10-29T14:25:18.062Z,18.4
2022-10-29T14:30:23.175Z,18.3
2022-10-29T14:35:29.375Z,18.2
2022-10-29T14:40:18.531Z,18.2
2022-10-29T14:45:24.521Z,18.2
2022-10-29T14:50:30.462Z,18.2
2022-10-29T14:55:19.472Z,18.1
2022-10-29T15:00:25.588Z,18.1
2022-10-29T15:05:31.466Z,17.9
2022-10-29T15:10:20.425Z,17.8
2022-10-29T15:15:26.496Z,17.7
2022-10-29T15:20:32.649Z,17.5
2022-10-29T15:25:21.596Z,17.5
2022-10-29T15:30:27.672Z,17.3
2022-10-29T15:35:16.844Z,17.3
2022-10-29T15:40:22.033Z,17.2
2022-10-29T15:45:28.080Z,17.1
2022-10-29T15:50:17.993Z,16.9
2022-10-29T15:55:26.604Z,16.8
2022-10-29T16:00:29.285Z,16.7
2022-10-29T16:05:17.679Z,16.5
2022-10-29T16:10:23.601Z,16.2
2022-10-29T16:15:29.676Z,16.0
2022-10-29T16:20:18.788Z,15.7
2022-10-29T16:25:24.790Z,15.5
2022-10-29T16:30:30.941Z,15.3
2022-10-29T16:35:19.878Z,15.1
2022-10-29T16:40:25.660Z,15.0
2022-10-29T16:45:31.647Z,14.8
2022-10-29T16:50:20.678Z,14.6
2022-10-29T16:55:26.843Z,14.4
2022-10-29T17:00:16.179Z,14.1
2022-10-29T17:05:22.143Z,14.1
2022-10-29T17:10:28.152Z,13.8
2022-10-29T17:15:17.224Z,13.7
2022-10-29T17:20:23.333Z,13.5
2022-10-29T17:25:29.566Z,13.4
2022-10-29T17:30:18.358Z,13.2
2022-10-29T17:35:24.454Z,13.2
2022-10-29T17:40:30.389Z,13.0
2022-10-29T17:45:19.301Z,13.0
2022-10-29T17:50:25.480Z,12.8
2022-10-29T17:55:31.402Z,12.8
2022-10-29T18:00:20.553Z,12.7
2022-10-29T18:05:26.429Z,12.6
2022-10-29T18:10:32.550Z,12.5
2022-10-29T18:15:21.635Z,12.5
2022-10-29T18:20:27.586Z,12.4
2022-10-29T18:25:16.584Z,12.4
2022-10-29T18:30:22.769Z,12.3
2022-10-29T18:35:28.834Z,12.2
2022-10-29T18:40:17.131Z,12.1
2022-10-29T18:45:23.080Z,12.1
2022-10-29T18:50:28.994Z,11.9
2022-10-29T18:55:18.037Z,11.8
2022-10-29T19:00:24.612Z,11.7
2022-10-29T19:05:30.314Z,11.6
2022-10-29T19:10:19.406Z,11.7
2022-10-29T19:15:25.390Z,11.7
2022-10-29T19:20:31.455Z,11.6
2022-10-29T19:25:20.445Z,11.5
2022-10-29T19:30:26.677Z,11.4
2022-10-29T19:35:32.620Z,11.2
2022-10-29T19:40:21.568Z,11.2
2022-10-29T19:45:27.680Z,11.1
2022-10-29T19:50:16.717Z,11.0
2022-10-29T19:55:22.736Z,10.9
2022-10-29T20:00:28.853Z,10.9
2022-10-29T20:05:18.319Z,10.8
2022-10-29T20:10:24.233Z,10.8
2022-10-29T20:15:30.278Z,10.8
2022-10-29T20:20:19.390Z,10.7
2022-10-29T20:25:25.368Z,10.7
2022-10-29T20:30:31.567Z,10.7
2022-10-29T20:35:20.492Z,10.7
2022-10-29T20:40:26.325Z,10.6
2022-10-29T20:45:32.411Z,10.7
2022-10-29T20:50:21.435Z,10.7
2022-10-29T20:55:27.600Z,10.7
2022-10-29T21:00:16.841Z,10.8
2022-10-29T21:05:21.898Z,10.8
2022-10-29T21:10:27.961Z,10.9
2022-10-29T21:15:17.000Z,10.9
2022-10-29T21:20:23.131Z,10.9
2022-10-29T21:25:29.146Z,10.7
2022-10-29T21:30:18.175Z,10.7
2022-10-29T21:35:24.295Z,10.7
2022-10-29T21:40:30.072Z,10.7
2022-10-29T21:45:19.018Z,10.7
2022-10-29T21:50:25.192Z,10.6
2022-10-29T21:55:31.278Z,10.6
2022-10-29T22:00:20.324Z,10.6
2022-10-29T22:05:25.701Z,10.5
2022-10-29T22:10:32.177Z,10.3
2022-10-29T22:15:20.722Z,10.2
2022-10-29T22:20:26.860Z,10.2
2022-10-29T22:25:15.982Z,10.1
2022-10-29T22:30:21.926Z,10.0
2022-10-29T22:35:28.088Z,9.9
2022-10-29T22:40:16.638Z,9.8
2022-10-29T22:45:22.741Z,9.7
2022-10-29T22:50:28.879Z,9.7
2022-10-29T22:55:17.901Z,9.8
2022-10-29T23:00:23.837Z,9.7
2022-10-29T23:05:30.044Z,9.5
2022-10-29T23:10:19.025Z,9.5
2022-10-29T23:15:25.096Z,9.4
2022-10-29T23:20:31.204Z,9.4
2022-10-29T23:25:20.221Z,9.5
2022-10-29T23:30:26.252Z,9.4
2022-10-29T23:35:32.603Z,9.3
2022-10-29T23:40:21.346Z,9.3
2022-10-29T23:45:27.391Z,9.2
2022-10-29T23:50:16.430Z,9.2
2022-10-29T23:55:22.612Z,9.1
